Deer Harbor, WA (98243)

11:03 AM PST on January 22, 2017 (GMT -0800)
Cayou Valley, Deer Harbor | | Change Station
Active Advisory: Small Craft Advisory

Elev 30 ft 48.63 °N, 123.00 °W | Updated 35 seconds ago

Overcast
Overcast
46.1 °F
Feels Like 46 °F
N
2.0
Wind Variable Wind from South

Today
High -- | Low -- °F
--% Chance of Precip.
Yesterday
High -- | Low -- °F
Precip. -- in
Pressure 29.49 in
Visibility 10.0 miles
Clouds Few 5000 ft
Scattered Clouds 8000 ft
Overcast 11000 ft
Windchill 46 °F
Dew Point 38 °F
Humidity 75%
Rainfall 0.00 in
Snow Depth Not available.
7:52 AM 4:55 PM
Waning Crescent, 24% visible
METAR KFHR 221853Z AUTO 12010G19KT 10SM FEW050 SCT080 OVC110 08/03 A2949 RMK AO2 SLP986 T00780033
Pressure 29.49 in
Visibility 10.0 miles
Clouds Few 5000 ft
Scattered Clouds 8000 ft
Overcast 11000 ft
Windchill 46 °F
Dew Point 38 °F
Humidity 75%
Rainfall 0.00 in
Snow Depth Not available.
7:52 AM 4:55 PM
Waning Crescent, 24% visible
METAR KFHR 221853Z AUTO 12010G19KT 10SM FEW050 SCT080 OVC110 08/03 A2949 RMK AO2 SLP986 T00780033

Get Your Daily Forecast Email!

Thanks for signing up!

Be on the lookout for a verification email in your inbox.

You'll start receiving the daily forecast at 8 AM.

×

10-Day Weather Forecast

Almanac

Astronomy

Jan. 22, 2017 Rise Set
Actual Time
Civil Twilight
Nautical Twilight
Astronomical Twilight
Moon
Length of Visible Light
Length of Day
Tomorrow will be .
, % of the Moon is Illuminated

Today's Extremes

State Highs State Lows

Community

WunderPhotos

Upload Photos

1,962,540 photos uploaded!

WunderBlog® & News

Nearby

Air Quality

  Air Quality AQ Index Pollutant
Not available.

Snow Depth

Station Depth Elevation

Earthquake Activity

City Distance Mag. Time & Date
Minimum magnitude displayed is 2.5.

Coastal Water Temperatures

Place Temperature

Stations

Nearby Weather Stations

Station Location Temp. Windchill Dew Point Humidity Wind Precip. Elev Updated Type
                   

Watches & Warnings

Small Craft Advisory
Issued: 8:49 AM PST Jan. 22, 2017 – National Weather Service

... Small Craft Advisory remains in effect until 6 PM PST this
evening...

* winds... southeast 15 to 25 knots.

Precautionary/preparedness actions...

A Small Craft Advisory means that wind speeds of 21 to 33 knots are
expected to produce hazardous wave conditions to small craft.
Inexperienced mariners... especially those operating smaller vessels
should avoid navigating in these conditions.